sensor_id;sensor_type;location;lat;lon;timestamp;temperature;humidity
55016;DHT22;40919;43.236;21.590;2022-07-09T00:01:00;537.90;2406.40
55016;DHT22;40919;43.236;21.590;2022-07-09T00:03:26;537.90;2406.40
55016;DHT22;40919;43.236;21.590;2022-07-09T00:05:52;537.90;2406.40
55016;DHT22;40919;43.236;21.590;2022-07-09T00:08:18;537.80;2406.40
55016;DHT22;40919;43.236;21.590;2022-07-09T00:10:44;537.80;2406.40
55016;DHT22;40919;43.236;21.590;2022-07-09T00:13:09;537.70;2406.40
55016;DHT22;40919;43.236;21.590;2022-07-09T00:15:36;537.70;2406.40
55016;DHT22;40919;43.236;21.590;2022-07-09T00:18:02;537.70;2406.40
55016;DHT22;40919;43.236;21.590;2022-07-09T00:20:27;537.70;2406.40
55016;DHT22;40919;43.236;21.590;2022-07-09T00:22:53;537.70;2406.40
55016;DHT22;40919;43.236;21.590;2022-07-09T00:25:19;537.70;2406.40
55016;DHT22;40919;43.236;21.590;2022-07-09T00:27:45;537.70;2406.40
55016;DHT22;40919;43.236;21.590;2022-07-09T00:30:11;537.70;2406.40
55016;DHT22;40919;43.236;21.590;2022-07-09T00:32:37;537.70;2406.40
55016;DHT22;40919;43.236;21.590;2022-07-09T00:35:03;537.70;2406.40
55016;DHT22;40919;43.236;21.590;2022-07-09T00:37:29;512.50;2380.80
55016;DHT22;40919;43.236;21.590;2022-07-09T00:39:55;537.70;2406.40
55016;DHT22;40919;43.236;21.590;2022-07-09T00:42:20;537.60;2406.40
55016;DHT22;40919;43.236;21.590;2022-07-09T00:44:46;537.70;2406.40
55016;DHT22;40919;43.236;21.590;2022-07-09T00:47:12;537.70;2406.40
55016;DHT22;40919;43.236;21.590;2022-07-09T00:49:41;537.70;2406.40
55016;DHT22;40919;43.236;21.590;2022-07-09T00:52:10;537.70;2406.40
55016;DHT22;40919;43.236;21.590;2022-07-09T00:54:38;537.70;2406.40
55016;DHT22;40919;43.236;21.590;2022-07-09T00:57:07;537.70;2406.40
55016;DHT22;40919;43.236;21.590;2022-07-09T00:59:34;537.70;2406.40
55016;DHT22;40919;43.236;21.590;2022-07-09T01:02:01;537.70;2406.40
55016;DHT22;40919;43.236;21.590;2022-07-09T01:04:27;537.70;2406.40
55016;DHT22;40919;43.236;21.590;2022-07-09T01:06:53;512.90;2380.80
55016;DHT22;40919;43.236;21.590;2022-07-09T01:09:19;512.90;2380.80
55016;DHT22;40919;43.236;21.590;2022-07-09T01:11:46;512.90;2380.80
55016;DHT22;40919;43.236;21.590;2022-07-09T01:14:13;538.00;2406.40
55016;DHT22;40919;43.236;21.590;2022-07-09T01:16:39;537.60;2406.40
55016;DHT22;40919;43.236;21.590;2022-07-09T01:19:05;537.70;2406.40
55016;DHT22;40919;43.236;21.590;2022-07-09T01:21:32;537.60;2406.40
55016;DHT22;40919;43.236;21.590;2022-07-09T01:23:58;537.60;2406.40
55016;DHT22;40919;43.236;21.590;2022-07-09T01:26:24;537.60;2406.40
55016;DHT22;40919;43.236;21.590;2022-07-09T01:28:51;512.90;2380.80
55016;DHT22;40919;43.236;21.590;2022-07-09T01:31:17;537.60;2406.40
55016;DHT22;40919;43.236;21.590;2022-07-09T01:33:43;512.90;2380.80
55016;DHT22;40919;43.236;21.590;2022-07-09T01:36:10;512.90;2380.80
55016;DHT22;40919;43.236;21.590;2022-07-09T01:38:36;512.90;2380.80
55016;DHT22;40919;43.236;21.590;2022-07-09T01:41:03;512.90;2380.80
55016;DHT22;40919;43.236;21.590;2022-07-09T01:43:29;512.80;2380.80
55016;DHT22;40919;43.236;21.590;2022-07-09T01:45:56;512.90;2380.80
55016;DHT22;40919;43.236;21.590;2022-07-09T01:48:22;512.90;2380.80
55016;DHT22;40919;43.236;21.590;2022-07-09T01:50:48;512.80;2380.80
55016;DHT22;40919;43.236;21.590;2022-07-09T01:53:14;512.80;2380.80
55016;DHT22;40919;43.236;21.590;2022-07-09T01:55:40;512.70;2380.80
55016;DHT22;40919;43.236;21.590;2022-07-09T01:58:06;512.70;2380.80
55016;DHT22;40919;43.236;21.590;2022-07-09T02:00:32;512.60;2380.80
55016;DHT22;40919;43.236;21.590;2022-07-09T02:02:57;512.50;2380.80
55016;DHT22;40919;43.236;21.590;2022-07-09T02:05:23;512.50;2380.80
55016;DHT22;40919;43.236;21.590;2022-07-09T02:07:49;512.60;2380.80
55016;DHT22;40919;43.236;21.590;2022-07-09T02:10:15;512.50;2380.80
55016;DHT22;40919;43.236;21.590;2022-07-09T02:12:41;512.50;2380.80
55016;DHT22;40919;43.236;21.590;2022-07-09T02:15:08;512.50;2380.80
55016;DHT22;40919;43.236;21.590;2022-07-09T02:17:36;512.30;2380.80
55016;DHT22;40919;43.236;21.590;2022-07-09T02:20:03;512.40;2380.80
55016;DHT22;40919;43.236;21.590;2022-07-09T02:22:29;512.40;2380.80
55016;DHT22;40919;43.236;21.590;2022-07-09T02:24:56;512.30;2380.80
55016;DHT22;40919;43.236;21.590;2022-07-09T02:27:22;512.20;2380.80
55016;DHT22;40919;43.236;21.590;2022-07-09T02:29:48;512.30;2380.80
55016;DHT22;40919;43.236;21.590;2022-07-09T02:32:14;512.20;2380.80
55016;DHT22;40919;43.236;21.590;2022-07-09T02:34:39;512.10;2380.80
55016;DHT22;40919;43.236;21.590;2022-07-09T02:37:06;512.20;2380.80
55016;DHT22;40919;43.236;21.590;2022-07-09T02:39:32;487.20;2380.80
55016;DHT22;40919;43.236;21.590;2022-07-09T02:41:58;512.10;2380.80
55016;DHT22;40919;43.236;21.590;2022-07-09T02:44:23;512.20;2380.80
55016;DHT22;40919;43.236;21.590;2022-07-09T02:46:49;512.20;2380.80
55016;DHT22;40919;43.236;21.590;2022-07-09T02:49:15;512.10;2380.80
55016;DHT22;40919;43.236;21.590;2022-07-09T02:51:41;512.10;2380.80
55016;DHT22;40919;43.236;21.590;2022-07-09T02:54:07;512.10;2380.80
55016;DHT22;40919;43.236;21.590;2022-07-09T02:56:33;512.00;2380.80
55016;DHT22;40919;43.236;21.590;2022-07-09T02:58:59;487.30;2380.80
55016;DHT22;40919;43.236;21.590;2022-07-09T03:01:25;512.10;2380.80
55016;DHT22;40919;43.236;21.590;2022-07-09T03:03:51;512.10;2380.80
55016;DHT22;40919;43.236;21.590;2022-07-09T03:06:17;512.20;2380.80
55016;DHT22;40919;43.236;21.590;2022-07-09T03:08:43;512.20;2380.80
55016;DHT22;40919;43.236;21.590;2022-07-09T03:11:09;512.40;2380.80
55016;DHT22;40919;43.236;21.590;2022-07-09T03:13:36;512.30;2380.80
55016;DHT22;40919;43.236;21.590;2022-07-09T03:16:03;512.40;2380.80
55016;DHT22;40919;43.236;21.590;2022-07-09T03:18:29;512.20;2380.80
55016;DHT22;40919;43.236;21.590;2022-07-09T03:20:54;512.20;2380.80
55016;DHT22;40919;43.236;21.590;2022-07-09T03:23:21;512.20;2380.80
55016;DHT22;40919;43.236;21.590;2022-07-09T03:25:47;512.20;2380.80
55016;DHT22;40919;43.236;21.590;2022-07-09T03:28:13;512.20;2380.80
55016;DHT22;40919;43.236;21.590;2022-07-09T03:30:39;512.10;2380.80
55016;DHT22;40919;43.236;21.590;2022-07-09T03:33:04;512.20;2380.80
55016;DHT22;40919;43.236;21.590;2022-07-09T03:35:30;512.20;2380.80
55016;DHT22;40919;43.236;21.590;2022-07-09T03:37:56;512.30;2380.80
55016;DHT22;40919;43.236;21.590;2022-07-09T03:40:22;512.20;2380.80
55016;DHT22;40919;43.236;21.590;2022-07-09T03:42:48;512.20;2380.80
55016;DHT22;40919;43.236;21.590;2022-07-09T03:45:14;512.20;2380.80
55016;DHT22;40919;43.236;21.590;2022-07-09T03:47:40;512.10;2380.80
55016;DHT22;40919;43.236;21.590;2022-07-09T03:50:06;512.10;2380.80
55016;DHT22;40919;43.236;21.590;2022-07-09T03:52:32;512.10;2380.80
55016;DHT22;40919;43.236;21.590;2022-07-09T03:54:58;487.30;2380.80
55016;DHT22;40919;43.236;21.590;2022-07-09T03:57:24;487.30;2380.80
55016;DHT22;40919;43.236;21.590;2022-07-09T03:59:50;487.30;2380.80
55016;DHT22;40919;43.236;21.590;2022-07-09T04:02:16;487.20;2380.80
55016;DHT22;40919;43.236;21.590;2022-07-09T04:04:41;487.20;2380.80
55016;DHT22;40919;43.236;21.590;2022-07-09T04:07:09;487.20;2380.80
55016;DHT22;40919;43.236;21.590;2022-07-09T04:09:35;487.10;2380.80
55016;DHT22;40919;43.236;21.590;2022-07-09T04:12:01;487.10;2380.80
55016;DHT22;40919;43.236;21.590;2022-07-09T04:14:27;487.20;2380.80
55016;DHT22;40919;43.236;21.590;2022-07-09T04:16:52;487.10;2380.80
55016;DHT22;40919;43.236;21.590;2022-07-09T04:19:18;487.10;2380.80
55016;DHT22;40919;43.236;21.590;2022-07-09T04:21:44;487.00;2380.80
55016;DHT22;40919;43.236;21.590;2022-07-09T04:24:10;487.00;2380.80
55016;DHT22;40919;43.236;21.590;2022-07-09T04:26:36;487.00;2380.80
55016;DHT22;40919;43.236;21.590;2022-07-09T04:29:02;487.00;2380.80
55016;DHT22;40919;43.236;21.590;2022-07-09T04:31:28;487.00;2380.80
55016;DHT22;40919;43.236;21.590;2022-07-09T04:33:53;487.00;2380.80
55016;DHT22;40919;43.236;21.590;2022-07-09T04:36:19;487.00;2380.80
55016;DHT22;40919;43.236;21.590;2022-07-09T04:38:45;487.00;2380.80
55016;DHT22;40919;43.236;21.590;2022-07-09T04:41:11;487.10;2380.80
55016;DHT22;40919;43.236;21.590;2022-07-09T04:43:37;487.00;2380.80
55016;DHT22;40919;43.236;21.590;2022-07-09T04:46:02;486.90;2380.80
55016;DHT22;40919;43.236;21.590;2022-07-09T04:48:28;487.00;2380.80
55016;DHT22;40919;43.236;21.590;2022-07-09T04:50:54;487.00;2380.80
55016;DHT22;40919;43.236;21.590;2022-07-09T04:53:21;487.00;2380.80
55016;DHT22;40919;43.236;21.590;2022-07-09T04:55:47;486.40;2380.80
55016;DHT22;40919;43.236;21.590;2022-07-09T04:58:13;486.90;2380.80
55016;DHT22;40919;43.236;21.590;2022-07-09T05:00:39;487.10;2380.80
55016;DHT22;40919;43.236;21.590;2022-07-09T05:03:05;486.80;2380.80
55016;DHT22;40919;43.236;21.590;2022-07-09T05:05:30;486.90;2380.80
55016;DHT22;40919;43.236;21.590;2022-07-09T05:07:57;486.70;2380.80
55016;DHT22;40919;43.236;21.590;2022-07-09T05:10:23;486.70;2380.80
55016;DHT22;40919;43.236;21.590;2022-07-09T05:12:49;486.70;2380.80
55016;DHT22;40919;43.236;21.590;2022-07-09T05:17:42;486.70;2380.80
55016;DHT22;40919;43.236;21.590;2022-07-09T05:20:09;486.70;2380.80
55016;DHT22;40919;43.236;21.590;2022-07-09T05:22:36;486.70;2380.80
55016;DHT22;40919;43.236;21.590;2022-07-09T05:29:55;486.70;2380.80
55016;DHT22;40919;43.236;21.590;2022-07-09T05:42:06;486.60;2380.80
55016;DHT22;40919;43.236;21.590;2022-07-09T05:44:32;486.40;2380.80
55016;DHT22;40919;43.236;21.590;2022-07-09T05:46:58;461.50;2380.80
55016;DHT22;40919;43.236;21.590;2022-07-09T05:49:24;486.40;2380.80
55016;DHT22;40919;43.236;21.590;2022-07-09T05:51:51;461.70;2380.80
55016;DHT22;40919;43.236;21.590;2022-07-09T05:54:16;486.40;2380.80
55016;DHT22;40919;43.236;21.590;2022-07-09T05:56:42;486.40;2380.80
55016;DHT22;40919;43.236;21.590;2022-07-09T05:59:08;486.40;2380.80
55016;DHT22;40919;43.236;21.590;2022-07-09T06:01:34;461.70;2380.80
55016;DHT22;40919;43.236;21.590;2022-07-09T06:04:05;486.40;2380.80
55016;DHT22;40919;43.236;21.590;2022-07-09T06:06:33;461.70;2380.80
55016;DHT22;40919;43.236;21.590;2022-07-09T06:08:58;486.40;2380.80
55016;DHT22;40919;43.236;21.590;2022-07-09T06:11:25;486.40;2380.80
55016;DHT22;40919;43.236;21.590;2022-07-09T06:13:51;486.50;2380.80
55016;DHT22;40919;43.236;21.590;2022-07-09T06:16:16;486.40;2380.80
55016;DHT22;40919;43.236;21.590;2022-07-09T06:18:42;486.40;2380.80
55016;DHT22;40919;43.236;21.590;2022-07-09T06:21:08;486.40;2380.80
55016;DHT22;40919;43.236;21.590;2022-07-09T06:23:34;486.40;2380.80
55016;DHT22;40919;43.236;21.590;2022-07-09T06:25:59;486.40;2380.80
55016;DHT22;40919;43.236;21.590;2022-07-09T06:28:25;486.50;2380.80
55016;DHT22;40919;43.236;21.590;2022-07-09T06:30:51;486.50;2380.80
55016;DHT22;40919;43.236;21.590;2022-07-09T06:33:17;486.50;2380.80
55016;DHT22;40919;43.236;21.590;2022-07-09T06:35:42;486.50;2380.80
55016;DHT22;40919;43.236;21.590;2022-07-09T06:38:08;486.40;2380.80
55016;DHT22;40919;43.236;21.590;2022-07-09T06:40:34;486.50;2380.80
55016;DHT22;40919;43.236;21.590;2022-07-09T06:43:00;486.50;2380.80
55016;DHT22;40919;43.236;21.590;2022-07-09T06:45:26;486.40;2380.80
55016;DHT22;40919;43.236;21.590;2022-07-09T06:47:52;486.50;2380.80
55016;DHT22;40919;43.236;21.590;2022-07-09T06:50:19;486.50;2380.80
55016;DHT22;40919;43.236;21.590;2022-07-09T06:52:44;486.50;2380.80
55016;DHT22;40919;43.236;21.590;2022-07-09T06:55:10;486.50;2380.80
55016;DHT22;40919;43.236;21.590;2022-07-09T06:57:37;486.50;2380.80
55016;DHT22;40919;43.236;21.590;2022-07-09T07:00:04;486.60;2380.80
55016;DHT22;40919;43.236;21.590;2022-07-09T07:02:30;486.50;2380.80
55016;DHT22;40919;43.236;21.590;2022-07-09T07:04:56;486.50;2380.80
55016;DHT22;40919;43.236;21.590;2022-07-09T07:07:22;486.50;2380.80
55016;DHT22;40919;43.236;21.590;2022-07-09T07:09:48;486.50;2380.80
55016;DHT22;40919;43.236;21.590;2022-07-09T07:12:14;486.50;2380.80
55016;DHT22;40919;43.236;21.590;2022-07-09T07:14:39;486.50;2380.80
55016;DHT22;40919;43.236;21.590;2022-07-09T07:17:05;486.50;2380.80
55016;DHT22;40919;43.236;21.590;2022-07-09T07:19:31;486.50;2380.80
55016;DHT22;40919;43.236;21.590;2022-07-09T07:21:57;486.50;2380.80
55016;DHT22;40919;43.236;21.590;2022-07-09T07:24:23;486.40;2380.80
55016;DHT22;40919;43.236;21.590;2022-07-09T07:26:48;486.40;2380.80
55016;DHT22;40919;43.236;21.590;2022-07-09T07:29:14;486.40;2150.40
55016;DHT22;40919;43.236;21.590;2022-07-09T07:31:40;486.40;2380.80
55016;DHT22;40919;43.236;21.590;2022-07-09T07:34:06;486.50;2380.80
55016;DHT22;40919;43.236;21.590;2022-07-09T07:36:32;486.50;2380.80
55016;DHT22;40919;43.236;21.590;2022-07-09T07:38:58;486.50;2380.80
55016;DHT22;40919;43.236;21.590;2022-07-09T07:41:23;486.50;2380.80
55016;DHT22;40919;43.236;21.590;2022-07-09T07:43:50;486.50;2380.80
55016;DHT22;40919;43.236;21.590;2022-07-09T07:46:15;486.60;2380.80
55016;DHT22;40919;43.236;21.590;2022-07-09T07:48:41;486.50;2176.00
55016;DHT22;40919;43.236;21.590;2022-07-09T07:51:08;486.70;2380.80
55016;DHT22;40919;43.236;21.590;2022-07-09T07:53:35;486.50;2380.80
55016;DHT22;40919;43.236;21.590;2022-07-09T07:56:04;486.50;2380.80
55016;DHT22;40919;43.236;21.590;2022-07-09T07:58:31;486.70;2380.80
55016;DHT22;40919;43.236;21.590;2022-07-09T08:00:57;486.90;2380.80
55016;DHT22;40919;43.236;21.590;2022-07-09T08:03:23;486.70;2380.80
55016;DHT22;40919;43.236;21.590;2022-07-09T08:05:49;486.70;2380.80
55016;DHT22;40919;43.236;21.590;2022-07-09T08:08:15;486.70;2380.80
55016;DHT22;40919;43.236;21.590;2022-07-09T08:10:41;486.70;2380.80
55016;DHT22;40919;43.236;21.590;2022-07-09T08:13:07;486.70;2380.80
55016;DHT22;40919;43.236;21.590;2022-07-09T08:15:32;486.80;2380.80
55016;DHT22;40919;43.236;21.590;2022-07-09T08:17:58;486.70;2380.80
55016;DHT22;40919;43.236;21.590;2022-07-09T08:20:24;486.70;2380.80
55016;DHT22;40919;43.236;21.590;2022-07-09T08:22:50;486.70;2380.80
55016;DHT22;40919;43.236;21.590;2022-07-09T08:25:16;486.70;2380.80
55016;DHT22;40919;43.236;21.590;2022-07-09T08:27:41;486.70;2380.80
55016;DHT22;40919;43.236;21.590;2022-07-09T08:30:08;486.70;2380.80
55016;DHT22;40919;43.236;21.590;2022-07-09T08:32:33;486.70;2380.80
55016;DHT22;40919;43.236;21.590;2022-07-09T08:34:59;486.70;2380.80
55016;DHT22;40919;43.236;21.590;2022-07-09T08:37:25;486.70;2022.40
55016;DHT22;40919;43.236;21.590;2022-07-09T08:39:51;486.70;2380.80
55016;DHT22;40919;43.236;21.590;2022-07-09T08:42:17;486.80;2380.80
55016;DHT22;40919;43.236;21.590;2022-07-09T08:44:46;486.80;2380.80
55016;DHT22;40919;43.236;21.590;2022-07-09T08:47:14;486.70;2380.80
55016;DHT22;40919;43.236;21.590;2022-07-09T08:49:41;486.70;2380.80
55016;DHT22;40919;43.236;21.590;2022-07-09T08:52:08;486.60;2380.80
55016;DHT22;40919;43.236;21.590;2022-07-09T08:54:35;486.70;2380.80
55016;DHT22;40919;43.236;21.590;2022-07-09T08:57:04;486.70;2380.80
55016;DHT22;40919;43.236;21.590;2022-07-09T08:59:31;486.70;2380.80
55016;DHT22;40919;43.236;21.590;2022-07-09T09:01:57;486.70;2380.80
55016;DHT22;40919;43.236;21.590;2022-07-09T09:04:24;486.70;2380.80
55016;DHT22;40919;43.236;21.590;2022-07-09T09:06:49;486.70;2380.80
55016;DHT22;40919;43.236;21.590;2022-07-09T09:09:19;486.70;2380.80
55016;DHT22;40919;43.236;21.590;2022-07-09T09:11:50;486.70;2380.80
55016;DHT22;40919;43.236;21.590;2022-07-09T09:14:23;486.80;2380.80
55016;DHT22;40919;43.236;21.590;2022-07-09T09:16:49;486.80;2380.80
55016;DHT22;40919;43.236;21.590;2022-07-09T09:19:15;486.70;2380.80
55016;DHT22;40919;43.236;21.590;2022-07-09T09:21:41;486.70;2380.80
55016;DHT22;40919;43.236;21.590;2022-07-09T09:24:07;486.70;2380.80
55016;DHT22;40919;43.236;21.590;2022-07-09T09:26:33;486.70;2380.80
55016;DHT22;40919;43.236;21.590;2022-07-09T09:29:02;486.60;2380.80
55016;DHT22;40919;43.236;21.590;2022-07-09T09:31:33;486.50;2380.80
55016;DHT22;40919;43.236;21.590;2022-07-09T09:34:12;486.50;2380.80
55016;DHT22;40919;43.236;21.590;2022-07-09T09:36:41;486.50;2380.80
55016;DHT22;40919;43.236;21.590;2022-07-09T09:39:20;486.50;2380.80
55016;DHT22;40919;43.236;21.590;2022-07-09T09:42:05;486.40;2380.80
55016;DHT22;40919;43.236;21.590;2022-07-09T09:44:33;486.50;2380.80
55016;DHT22;40919;43.236;21.590;2022-07-09T09:47:04;486.50;2380.80
55016;DHT22;40919;43.236;21.590;2022-07-09T09:49:30;486.50;2380.80
55016;DHT22;40919;43.236;21.590;2022-07-09T09:52:02;486.50;2380.80
55016;DHT22;40919;43.236;21.590;2022-07-09T09:54:28;486.50;2380.80
55016;DHT22;40919;43.236;21.590;2022-07-09T09:56:55;486.50;2380.80
55016;DHT22;40919;43.236;21.590;2022-07-09T09:59:22;486.50;2380.80
55016;DHT22;40919;43.236;21.590;2022-07-09T10:01:48;486.60;2380.80
55016;DHT22;40919;43.236;21.590;2022-07-09T10:04:14;486.60;2380.80
55016;DHT22;40919;43.236;21.590;2022-07-09T10:06:41;486.70;2380.80
55016;DHT22;40919;43.236;21.590;2022-07-09T10:09:11;486.70;2380.80
55016;DHT22;40919;43.236;21.590;2022-07-09T10:11:42;486.70;2380.80
55016;DHT22;40919;43.236;21.590;2022-07-09T10:14:28;486.70;2380.80
55016;DHT22;40919;43.236;21.590;2022-07-09T10:16:55;486.60;2380.80
55016;DHT22;40919;43.236;21.590;2022-07-09T10:19:30;486.50;2380.80
55016;DHT22;40919;43.236;21.590;2022-07-09T10:21:59;486.70;2380.80
55016;DHT22;40919;43.236;21.590;2022-07-09T10:24:30;486.70;2380.80
55016;DHT22;40919;43.236;21.590;2022-07-09T10:27:09;486.70;2380.80
55016;DHT22;40919;43.236;21.590;2022-07-09T10:29:51;486.70;2380.80
55016;DHT22;40919;43.236;21.590;2022-07-09T10:32:31;486.70;2380.80
55016;DHT22;40919;43.236;21.590;2022-07-09T10:35:05;486.70;2380.80
55016;DHT22;40919;43.236;21.590;2022-07-09T10:40:03;486.70;2380.80
55016;DHT22;40919;43.236;21.590;2022-07-09T10:42:29;486.80;2380.80
55016;DHT22;40919;43.236;21.590;2022-07-09T10:44:55;486.70;2380.80
55016;DHT22;40919;43.236;21.590;2022-07-09T10:47:22;486.80;2380.80
55016;DHT22;40919;43.236;21.590;2022-07-09T10:49:48;486.70;2380.80
55016;DHT22;40919;43.236;21.590;2022-07-09T10:52:14;486.70;2380.80
55016;DHT22;40919;43.236;21.590;2022-07-09T10:54:47;486.80;2380.80
55016;DHT22;40919;43.236;21.590;2022-07-09T10:57:14;486.80;2380.80
55016;DHT22;40919;43.236;21.590;2022-07-09T10:59:45;486.80;2380.80
55016;DHT22;40919;43.236;21.590;2022-07-09T11:02:19;486.70;2380.80
55016;DHT22;40919;43.236;21.590;2022-07-09T11:04:51;486.70;2380.80
55016;DHT22;40919;43.236;21.590;2022-07-09T11:07:24;486.80;2380.80
55016;DHT22;40919;43.236;21.590;2022-07-09T11:09:51;486.80;2380.80
55016;DHT22;40919;43.236;21.590;2022-07-09T11:12:19;486.70;2380.80
55016;DHT22;40919;43.236;21.590;2022-07-09T11:14:46;486.80;2380.80
55016;DHT22;40919;43.236;21.590;2022-07-09T11:17:19;486.80;2380.80
55016;DHT22;40919;43.236;21.590;2022-07-09T11:19:46;486.80;2380.80
55016;DHT22;40919;43.236;21.590;2022-07-09T11:22:12;487.30;2380.80
55016;DHT22;40919;43.236;21.590;2022-07-09T11:24:38;486.80;2380.80
55016;DHT22;40919;43.236;21.590;2022-07-09T11:27:05;486.80;2380.80
55016;DHT22;40919;43.236;21.590;2022-07-09T11:29:32;486.70;2048.00
55016;DHT22;40919;43.236;21.590;2022-07-09T11:31:58;486.80;2380.80
55016;DHT22;40919;43.236;21.590;2022-07-09T11:34:23;486.80;2380.80
55016;DHT22;40919;43.236;21.590;2022-07-09T11:36:54;486.80;2380.80
55016;DHT22;40919;43.236;21.590;2022-07-09T11:39:31;486.70;2380.80
55016;DHT22;40919;43.236;21.590;2022-07-09T11:42:00;486.70;2380.80
55016;DHT22;40919;43.236;21.590;2022-07-09T11:44:27;486.70;2380.80
55016;DHT22;40919;43.236;21.590;2022-07-09T11:49:41;486.80;2380.80
55016;DHT22;40919;43.236;21.590;2022-07-09T11:52:21;486.70;2380.80
55016;DHT22;40919;43.236;21.590;2022-07-09T11:57:29;486.70;2380.80
55016;DHT22;40919;43.236;21.590;2022-07-09T11:59:56;486.70;2099.20
55016;DHT22;40919;43.236;21.590;2022-07-09T12:02:30;486.80;2380.80
55016;DHT22;40919;43.236;21.590;2022-07-09T12:04:56;486.80;2380.80
55016;DHT22;40919;43.236;21.590;2022-07-09T12:07:22;486.80;2380.80
55016;DHT22;40919;43.236;21.590;2022-07-09T12:12:24;486.80;2380.80
55016;DHT22;40919;43.236;21.590;2022-07-09T12:14:50;486.70;2380.80
55016;DHT22;40919;43.236;21.590;2022-07-09T12:17:21;486.70;2380.80
55016;DHT22;40919;43.236;21.590;2022-07-09T12:19:47;486.70;2380.80
55016;DHT22;40919;43.236;21.590;2022-07-09T12:22:14;486.60;2380.80
55016;DHT22;40919;43.236;21.590;2022-07-09T12:24:39;486.70;2380.80
55016;DHT22;40919;43.236;21.590;2022-07-09T12:27:05;486.70;2380.80
55016;DHT22;40919;43.236;21.590;2022-07-09T12:29:31;486.70;2380.80
55016;DHT22;40919;43.236;21.590;2022-07-09T12:31:57;486.70;2304.00
55016;DHT22;40919;43.236;21.590;2022-07-09T12:34:22;486.70;2380.80
55016;DHT22;40919;43.236;21.590;2022-07-09T12:36:49;486.70;2380.80
55016;DHT22;40919;43.236;21.590;2022-07-09T12:39:15;486.60;2380.80
55016;DHT22;40919;43.236;21.590;2022-07-09T12:41:40;486.70;2380.80
55016;DHT22;40919;43.236;21.590;2022-07-09T12:44:06;486.70;2380.80
55016;DHT22;40919;43.236;21.590;2022-07-09T12:46:33;486.70;2380.80
55016;DHT22;40919;43.236;21.590;2022-07-09T12:48:59;486.60;2380.80
55016;DHT22;40919;43.236;21.590;2022-07-09T12:51:25;486.50;2380.80
55016;DHT22;40919;43.236;21.590;2022-07-09T12:53:51;486.50;2380.80
55016;DHT22;40919;43.236;21.590;2022-07-09T12:56:17;486.50;2380.80
55016;DHT22;40919;43.236;21.590;2022-07-09T12:58:43;486.50;2380.80
55016;DHT22;40919;43.236;21.590;2022-07-09T13:01:08;486.50;2380.80
55016;DHT22;40919;43.236;21.590;2022-07-09T13:03:34;486.50;2380.80
55016;DHT22;40919;43.236;21.590;2022-07-09T13:06:00;486.50;2380.80
55016;DHT22;40919;43.236;21.590;2022-07-09T13:08:26;486.50;2380.80
55016;DHT22;40919;43.236;21.590;2022-07-09T13:10:52;486.50;2380.80
55016;DHT22;40919;43.236;21.590;2022-07-09T13:13:18;486.40;2380.80
55016;DHT22;40919;43.236;21.590;2022-07-09T13:15:44;461.70;2380.80
55016;DHT22;40919;43.236;21.590;2022-07-09T13:18:10;461.70;2380.80
55016;DHT22;40919;43.236;21.590;2022-07-09T13:20:37;461.70;2380.80
55016;DHT22;40919;43.236;21.590;2022-07-09T13:23:03;461.70;2380.80
55016;DHT22;40919;43.236;21.590;2022-07-09T13:25:31;461.70;2380.80
55016;DHT22;40919;43.236;21.590;2022-07-09T13:27:57;461.70;2380.80
55016;DHT22;40919;43.236;21.590;2022-07-09T13:30:23;461.70;2380.80
55016;DHT22;40919;43.236;21.590;2022-07-09T13:32:52;461.70;2380.80
55016;DHT22;40919;43.236;21.590;2022-07-09T13:35:21;461.70;2380.80
55016;DHT22;40919;43.236;21.590;2022-07-09T13:38:16;461.60;2380.80
55016;DHT22;40919;43.236;21.590;2022-07-09T13:40:55;486.40;2380.80
55016;DHT22;40919;43.236;21.590;2022-07-09T13:43:31;461.60;2380.80
55016;DHT22;40919;43.236;21.590;2022-07-09T13:46:04;487.10;2380.80
55016;DHT22;40919;43.236;21.590;2022-07-09T13:48:34;461.50;2073.60
55016;DHT22;40919;43.236;21.590;2022-07-09T13:51:01;461.50;2380.80
55016;DHT22;40919;43.236;21.590;2022-07-09T13:53:30;461.60;2380.80
55016;DHT22;40919;43.236;21.590;2022-07-09T13:55:58;461.50;2380.80
55016;DHT22;40919;43.236;21.590;2022-07-09T13:58:24;461.50;2380.80
55016;DHT22;40919;43.236;21.590;2022-07-09T14:00:55;461.50;2380.80
55016;DHT22;40919;43.236;21.590;2022-07-09T14:03:21;461.50;2380.80
55016;DHT22;40919;43.236;21.590;2022-07-09T14:06:18;461.50;2380.80
55016;DHT22;40919;43.236;21.590;2022-07-09T14:08:53;461.50;2380.80
55016;DHT22;40919;43.236;21.590;2022-07-09T14:31:13;486.60;2380.80
55016;DHT22;40919;43.236;21.590;2022-07-09T14:33:39;486.50;2380.80
55016;DHT22;40919;43.236;21.590;2022-07-09T14:36:05;486.40;2380.80
55016;DHT22;40919;43.236;21.590;2022-07-09T14:38:31;461.70;2380.80
55016;DHT22;40919;43.236;21.590;2022-07-09T14:40:57;486.50;2380.80
55016;DHT22;40919;43.236;21.590;2022-07-09T14:43:23;486.50;2380.80
55016;DHT22;40919;43.236;21.590;2022-07-09T14:45:49;486.60;2380.80
55016;DHT22;40919;43.236;21.590;2022-07-09T14:48:15;486.70;2380.80
55016;DHT22;40919;43.236;21.590;2022-07-09T14:50:41;486.70;2380.80
55016;DHT22;40919;43.236;21.590;2022-07-09T14:53:07;486.80;2380.80
55016;DHT22;40919;43.236;21.590;2022-07-09T15:13:30;487.00;2380.80
55016;DHT22;40919;43.236;21.590;2022-07-09T15:23:41;487.00;2380.80
55016;DHT22;40919;43.236;21.590;2022-07-09T15:26:07;487.00;2380.80
55016;DHT22;40919;43.236;21.590;2022-07-09T15:28:39;487.00;2380.80
55016;DHT22;40919;43.236;21.590;2022-07-09T15:34:05;487.00;2380.80
55016;DHT22;40919;43.236;21.590;2022-07-09T15:36:31;486.80;2380.80
55016;DHT22;40919;43.236;21.590;2022-07-09T15:38:58;487.00;2380.80
55016;DHT22;40919;43.236;21.590;2022-07-09T15:41:24;487.00;2380.80
55016;DHT22;40919;43.236;21.590;2022-07-09T15:47:44;487.00;2380.80
55016;DHT22;40919;43.236;21.590;2022-07-09T16:06:35;486.90;2380.80
55016;DHT22;40919;43.236;21.590;2022-07-09T16:09:04;486.90;2380.80
55016;DHT22;40919;43.236;21.590;2022-07-09T16:11:31;487.00;2380.80